Time;durP1;ratioP1;P1;durP2;ratioP2;P2;SDS_P1;SDS_P2;PMS_P1;PMS_P2;Temp;Humidity;BMP_temperature;BMP_pressure;BME280_temperature;BME280_humidity;BME280_pressure;Samples;Min_cycle;Max_cycle;Signal;HPM_P1;HPM_P2
2022/12/25 00:01:23;;;;;;;22.80;8.27;;;;;;;5.28;100.00;100887.50;4822837;29;20051;-80
2022/12/25 00:03:50;;;;;;;16.67;8.47;;;;;;;5.25;100.00;100893.63;4806963;29;20061;-80
2022/12/25 00:06:18;;;;;;;16.77;8.00;;;;;;;5.22;100.00;100897.97;4798126;29;20074;-81
2022/12/25 00:08:45;;;;;;;20.53;9.80;;;;;;;5.24;100.00;100901.47;4802989;29;20129;-81
2022/12/25 00:11:14;;;;;;;14.20;6.93;;;;;;;5.19;100.00;100905.81;4800453;29;20046;-80
2022/12/25 00:13:42;;;;;;;13.60;6.87;;;;;;;5.15;100.00;100894.44;4814684;29;20052;-81
2022/12/25 00:16:15;;;;;;;19.00;8.37;;;;;;;5.20;100.00;100894.47;4821741;29;20047;-80
2022/12/25 00:18:42;;;;;;;15.40;7.72;;;;;;;5.13;100.00;100890.97;4808119;29;20041;-80
2022/12/25 00:21:09;;;;;;;14.40;7.10;;;;;;;5.11;100.00;100891.78;4814069;29;20046;-80
2022/12/25 00:23:36;;;;;;;13.60;6.80;;;;;;;5.07;100.00;100897.03;4800862;29;20050;-81
2022/12/25 00:26:04;;;;;;;15.70;7.17;;;;;;;5.05;100.00;100900.50;4819057;29;20049;-81
2022/12/25 00:28:31;;;;;;;19.40;7.70;;;;;;;5.02;100.00;100898.72;4820092;29;20137;-80
2022/12/25 00:30:57;;;;;;;14.63;6.97;;;;;;;5.00;100.00;100899.59;4805847;29;20044;-82
2022/12/25 00:33:25;;;;;;;11.30;5.93;;;;;;;4.99;100.00;100896.09;4817725;29;20053;-80
2022/12/25 00:35:59;;;;;;;16.30;7.90;;;;;;;5.01;100.00;100910.06;4803155;29;20046;-80
2022/12/25 00:38:26;;;;;;;17.05;8.02;;;;;;;4.99;100.00;100913.56;4821142;29;20050;-80
2022/12/25 00:40:53;;;;;;;15.17;6.67;;;;;;;4.98;100.00;100909.19;4820174;29;20493;-80
2022/12/25 00:43:20;;;;;;;14.33;7.13;;;;;;;5.01;100.00;100915.31;4818468;29;20190;-82
2022/12/25 00:45:55;;;;;;;15.20;7.93;;;;;;;4.99;100.00;100921.41;4825583;29;20432;-81
2022/12/25 00:48:22;;;;;;;12.00;6.00;;;;;;;4.96;100.00;100922.28;4807491;29;20519;-81
2022/12/25 00:50:52;;;;;;;13.00;6.07;;;;;;;4.92;100.00;100920.50;4820390;29;20473;-81
2022/12/25 00:53:19;;;;;;;10.37;5.67;;;;;;;4.87;100.00;100919.56;4805168;29;20058;-81
2022/12/25 00:55:53;;;;;;;12.17;6.27;;;;;;;4.86;100.00;100930.03;4809540;29;20516;-80
2022/12/25 00:58:20;;;;;;;14.85;6.30;;;;;;;4.82;100.00;100926.53;4826010;29;20053;-82
2022/12/25 01:00:48;;;;;;;11.87;5.20;;;;;;;4.81;100.00;100927.41;4817389;29;20043;-81
2022/12/25 01:03:15;;;;;;;12.63;5.87;;;;;;;4.84;100.00;100935.25;4820348;29;20476;-82
2022/12/25 01:05:43;;;;;;;13.93;6.60;;;;;;;4.80;100.00;100946.59;4806246;29;20050;-80
2022/12/25 01:08:09;;;;;;;12.40;5.73;;;;;;;4.80;100.00;100939.63;4819470;29;20046;-81
2022/12/25 01:10:36;;;;;;;9.63;5.50;;;;;;;4.74;100.00;100955.25;4823190;29;20557;-81
2022/12/25 01:13:03;;;;;;;8.63;5.10;;;;;;;4.71;100.00;100952.63;4804661;29;20046;-82
2022/12/25 01:15:29;;;;;;;8.93;4.87;;;;;;;4.67;100.00;100953.47;4805392;29;20462;-81
2022/12/25 01:17:56;;;;;;;7.93;4.80;;;;;;;4.62;100.00;100952.53;4819872;29;20102;-80
2022/12/25 01:20:22;;;;;;;9.73;4.80;;;;;;;4.59;100.00;100949.91;4823928;29;20051;-80
2022/12/25 01:22:49;;;;;;;11.93;6.03;;;;;;;4.53;100.00;100961.19;4823891;29;20034;-82
2022/12/25 01:25:16;;;;;;;12.73;6.33;;;;;;;4.52;100.00;100963.78;4819142;29;20465;-82
2022/12/25 01:27:42;;;;;;;12.50;5.80;;;;;;;4.46;100.00;100972.47;4821178;29;20496;-81
2022/12/25 01:30:10;;;;;;;8.53;5.07;;;;;;;4.37;100.00;100980.25;4822554;29;20106;-82
2022/12/25 01:32:36;;;;;;;11.67;6.57;;;;;;;4.33;100.00;100985.41;4820704;29;20041;-81
2022/12/25 01:35:03;;;;;;;9.87;4.30;;;;;;;4.22;100.00;100990.53;4823849;29;20050;-80
2022/12/25 01:37:40;;;;;;;9.70;4.90;;;;;;;4.15;100.00;100991.34;4820838;29;20417;-81
2022/12/25 01:41:21;;;;;;;6.73;4.07;;;;;;;4.09;100.00;101001.72;4822964;29;20101;-79
2022/12/25 01:44:56;;;;;;;11.77;4.13;;;;;;;4.01;100.00;101011.19;4767297;29;20058;-80
2022/12/25 01:48:22;;;;;;;8.60;4.50;;;;;;;4.05;100.00;101003.44;4800812;29;20049;-81
2022/12/25 01:51:45;;;;;;;6.88;3.83;;;;;;;4.04;100.00;101003.41;4805789;29;20047;-80
2022/12/25 01:54:46;;;;;;;5.57;3.43;;;;;;;3.99;100.00;100990.28;4806870;29;20105;-80
2022/12/25 01:57:27;;;;;;;6.27;4.50;;;;;;;4.07;100.00;100987.75;4810756;29;20050;-80
2022/12/25 02:00:10;;;;;;;8.03;4.00;;;;;;;4.02;100.00;100981.59;4817433;29;20065;-79
2022/12/25 02:02:50;;;;;;;9.00;4.17;;;;;;;4.02;100.00;100987.69;4821184;29;20137;-79
2022/12/25 02:05:32;;;;;;;8.90;3.73;;;;;;;4.02;100.00;100989.41;4803886;29;20058;-80
2022/12/25 02:08:19;;;;;;;7.83;3.83;;;;;;;4.01;100.00;100990.28;4817139;29;20082;-80
2022/12/25 02:10:59;;;;;;;5.80;3.77;;;;;;;4.01;100.00;100999.00;4802344;29;20046;-79
2022/12/25 02:13:41;;;;;;;11.00;4.83;;;;;;;4.01;100.00;100998.13;4798719;29;20051;-79
2022/12/25 02:16:34;;;;;;;6.63;3.80;;;;;;;4.05;100.00;101002.56;4793584;29;20812;-80
2022/12/25 02:20:10;;;;;;;10.93;5.70;;;;;;;4.11;100.00;100999.97;4817701;29;20058;-79
2022/12/25 02:23:11;;;;;;;10.50;5.00;;;;;;;4.16;100.00;100998.31;4809439;29;20051;-79
2022/12/25 02:26:26;;;;;;;11.00;5.07;;;;;;;4.25;100.00;101014.09;4817049;29;20042;-83
2022/12/25 02:29:46;;;;;;;11.77;5.10;;;;;;;4.26;100.00;101030.66;4796964;29;20195;-80
2022/12/25 02:32:46;;;;;;;8.63;4.77;;;;;;;4.31;100.00;101021.16;4790586;29;20046;-80
2022/12/25 02:35:31;;;;;;;10.70;5.20;;;;;;;4.31;100.00;101011.56;4810380;29;20046;-82
2022/12/25 02:38:10;;;;;;;14.77;6.67;;;;;;;4.42;100.00;101009.91;4820114;29;20096;-80
2022/12/25 02:41:01;;;;;;;15.63;7.13;;;;;;;4.46;100.00;101021.31;4822300;29;20061;-81
2022/12/25 03:07:20;;;;;;;13.43;6.60;;;;;;;4.63;100.00;101045.91;4812675;29;20047;-80
2022/12/25 03:12:55;;;;;;;14.07;7.17;;;;;;;4.59;100.00;101041.47;4815607;29;20042;-81
2022/12/25 03:18:58;;;;;;;15.50;7.00;;;;;;;4.62;100.00;101044.13;4806414;29;20134;-80
2022/12/25 03:27:31;;;;;;;17.10;7.80;;;;;;;4.65;100.00;101053.75;4814825;29;20058;-80
2022/12/25 03:33:06;;;;;;;14.00;7.63;;;;;;;4.66;100.00;101048.53;4827449;29;20055;-81
2022/12/25 03:36:04;;;;;;;15.17;7.30;;;;;;;4.64;100.00;101054.63;4824463;29;20149;-81
2022/12/25 03:45:41;;;;;;;16.73;8.10;;;;;;;4.64;100.00;101065.09;4819270;29;20089;-82
2022/12/25 04:37:57;;;;;;;15.60;7.03;;;;;;;4.50;100.00;101125.13;4804695;29;20130;-80
2022/12/25 04:40:24;;;;;;;13.77;6.83;;;;;;;4.43;100.00;101118.06;4817251;29;20077;-81
2022/12/25 04:42:51;;;;;;;12.40;6.40;;;;;;;4.39;100.00;101119.78;4806189;29;20081;-82
2022/12/25 04:45:18;;;;;;;17.67;7.23;;;;;;;4.38;100.00;101123.25;4804129;29;20418;-80
2022/12/25 04:47:45;;;;;;;13.70;7.33;;;;;;;4.37;100.00;101126.72;4822530;29;20175;-79
2022/12/25 04:50:12;;;;;;;13.60;7.10;;;;;;;4.40;100.00;101131.09;4818727;29;20099;-80
2022/12/25 04:52:39;;;;;;;13.23;6.80;;;;;;;4.36;100.00;101121.44;4818934;29;20054;-79
2022/12/25 04:55:07;;;;;;;13.57;6.33;;;;;;;4.34;100.00;101126.66;4806868;29;20060;-80
2022/12/25 04:57:34;;;;;;;15.27;7.57;;;;;;;4.33;100.00;101129.28;4819750;29;20039;-80
2022/12/25 05:00:01;;;;;;;13.53;7.07;;;;;;;4.29;100.00;101130.97;4808506;29;20054;-81
2022/12/25 05:02:28;;;;;;;14.80;7.57;;;;;;;4.45;100.00;101127.66;4816428;29;20358;-82
2022/12/25 05:04:55;;;;;;;15.30;7.30;;;;;;;4.47;100.00;101130.31;4820182;29;20050;-80
2022/12/25 05:07:21;;;;;;;11.63;6.80;;;;;;;4.32;100.00;101124.91;4821243;29;20044;-81
2022/12/25 05:09:48;;;;;;;12.40;6.13;;;;;;;4.23;100.00;101112.59;4826451;29;20687;-80
2022/12/25 05:12:15;;;;;;;11.60;6.23;;;;;;;4.20;100.00;101112.53;4825585;29;20096;-80
2022/12/25 05:14:41;;;;;;;11.47;5.93;;;;;;;4.17;100.00;101105.53;4817415;29;20114;-81
2022/12/25 05:17:08;;;;;;;14.37;6.87;;;;;;;4.16;100.00;101100.28;4818435;29;20054;-79
2022/12/25 05:19:35;;;;;;;13.03;6.10;;;;;;;4.09;100.00;101093.22;4804415;29;20492;-80
2022/12/25 05:22:01;;;;;;;11.67;5.70;;;;;;;4.09;100.00;101095.84;4818684;29;20039;-80
2022/12/25 05:24:28;;;;;;;12.43;6.13;;;;;;;4.10;100.00;101092.34;4820243;29;20401;-82
2022/12/25 05:26:54;;;;;;;15.33;7.00;;;;;;;4.12;100.00;101090.63;4818938;29;20095;-83
2022/12/25 05:29:21;;;;;;;11.83;6.50;;;;;;;4.08;100.00;101088.84;4807591;29;20059;-81
2022/12/25 05:31:48;;;;;;;17.13;7.43;;;;;;;4.04;100.00;101092.31;4818625;29;20123;-80
2022/12/25 05:34:15;;;;;;;13.10;6.53;;;;;;;4.02;100.00;101091.38;4805775;29;20141;-81
2022/12/25 05:36:42;;;;;;;16.20;6.90;;;;;;;4.01;100.00;101093.13;4810537;29;20050;-81
2022/12/25 05:39:08;;;;;;;15.37;6.33;;;;;;;3.98;100.00;101093.09;4835832;29;20094;-82
2022/12/25 05:41:35;;;;;;;13.10;5.97;;;;;;;3.99;100.00;101084.38;4812054;29;20050;-81
2022/12/25 05:44:02;;;;;;;10.83;6.13;;;;;;;3.98;100.00;101097.44;4817748;29;20039;-80
2022/12/25 05:46:29;;;;;;;12.67;5.47;;;;;;;3.93;100.00;101095.63;4821147;29;20061;-82
2022/12/25 05:48:55;;;;;;;13.40;5.93;;;;;;;3.91;100.00;101094.75;4829916;29;20046;-80
2022/12/25 05:51:22;;;;;;;13.00;5.57;;;;;;;3.95;100.00;101095.66;4810563;29;20050;-79
2022/12/25 05:53:49;;;;;;;12.30;6.37;;;;;;;3.87;100.00;101095.56;4824212;29;20228;-81
2022/12/25 05:56:15;;;;;;;15.83;5.27;;;;;;;3.85;100.00;101094.66;4823727;29;20051;-80
2022/12/25 05:58:42;;;;;;;11.80;5.07;;;;;;;3.83;100.00;101093.75;4822429;29;20073;-79
2022/12/25 06:01:11;;;;;;;10.93;5.87;;;;;;;3.79;100.00;101094.59;4824813;29;20047;-79
2022/12/25 06:03:38;;;;;;;13.27;6.23;;;;;;;3.77;100.00;101096.28;4781577;29;20454;-79
2022/12/25 06:06:06;;;;;;;13.87;5.20;;;;;;;3.76;100.00;101097.13;4823616;29;20497;-80
2022/12/25 06:08:33;;;;;;;12.87;5.33;;;;;;;3.75;100.00;101098.00;4825158;29;20565;-81
2022/12/25 06:11:04;;;;;;;21.60;6.40;;;;;;;3.75;100.00;101089.28;4805090;29;20046;-81
2022/12/25 06:13:31;;;;;;;14.60;6.53;;;;;;;3.75;100.00;101090.16;4805454;29;20095;-80
2022/12/25 06:15:58;;;;;;;12.63;5.57;;;;;;;3.76;100.00;101080.56;4797170;29;20567;-80
2022/12/25 06:18:25;;;;;;;14.93;6.77;;;;;;;3.81;100.00;101071.09;4822842;29;20056;-80
2022/12/25 06:20:52;;;;;;;16.10;5.67;;;;;;;3.74;100.00;101080.56;4824562;29;20046;-80
2022/12/25 06:23:18;;;;;;;14.20;5.43;;;;;;;3.70;100.00;101068.31;4824219;29;20099;-79
2022/12/25 06:25:45;;;;;;;12.43;5.70;;;;;;;3.66;100.00;101083.06;4825825;29;20465;-82
2022/12/25 06:28:12;;;;;;;26.73;6.43;;;;;;;3.70;100.00;101075.25;4810981;29;20107;-83
2022/12/25 06:30:38;;;;;;;9.10;5.20;;;;;;;3.72;100.00;101074.44;4809724;29;20042;-81
2022/12/25 06:33:07;;;;;;;13.97;5.27;;;;;;;3.63;100.00;101082.16;4810236;29;20075;-79
2022/12/25 06:35:38;;;;;;;8.70;4.47;;;;;;;3.61;100.00;101089.94;4809399;29;20042;-82
2022/12/25 06:38:05;;;;;;;9.50;4.07;;;;;;;3.60;100.00;101093.41;4821566;29;20050;-80
2022/12/25 06:40:32;;;;;;;18.57;6.53;;;;;;;3.63;100.00;101090.88;4825752;29;20038;-80
2022/12/25 06:42:59;;;;;;;11.37;4.57;;;;;;;3.58;100.00;101091.66;4817761;29;20062;-80
2022/12/25 06:45:26;;;;;;;10.40;4.67;;;;;;;3.62;100.00;101096.09;4812494;29;20050;-81
2022/12/25 06:47:52;;;;;;;7.03;3.73;;;;;;;3.68;100.00;101088.31;4820265;29;20038;-83
2022/12/25 06:50:19;;;;;;;10.00;5.13;;;;;;;3.59;100.00;101080.34;4821909;29;20046;-81
2022/12/25 06:52:45;;;;;;;10.60;4.77;;;;;;;3.61;100.00;101091.69;4805274;29;20062;-81
2022/12/25 06:55:12;;;;;;;15.43;5.50;;;;;;;3.55;100.00;101089.88;4822668;29;20050;-81
2022/12/25 06:57:39;;;;;;;11.20;5.47;;;;;;;3.53;100.00;101091.59;4807725;29;20053;-81
2022/12/25 07:00:08;;;;;;;13.10;5.50;;;;;;;3.54;100.00;101089.88;4820687;29;20141;-81
2022/12/25 07:02:37;;;;;;;11.27;6.00;;;;;;;3.64;100.00;101102.19;4804966;29;20071;-81
2022/12/25 07:05:04;;;;;;;10.60;5.17;;;;;;;3.55;100.00;101099.44;4819910;29;20051;-80
2022/12/25 07:07:31;;;;;;;12.10;5.97;;;;;;;3.75;100.00;101087.53;4822217;29;20054;-80
2022/12/25 07:09:57;;;;;;;13.07;5.47;;;;;;;3.76;100.00;101099.75;4801875;29;20050;-80
2022/12/25 07:12:24;;;;;;;11.93;4.83;;;;;;;3.68;100.00;101107.47;4832813;29;20050;-79
2022/12/25 07:14:53;;;;;;;8.87;4.87;;;;;;;3.65;100.00;101111.78;4815797;29;20054;-79
2022/12/25 07:17:20;;;;;;;13.70;5.53;;;;;;;3.79;100.00;101106.78;4828767;29;20081;-79
2022/12/25 07:19:47;;;;;;;12.80;5.57;;;;;;;3.66;100.00;101114.41;4828661;29;20049;-79
2022/12/25 07:22:15;;;;;;;11.37;4.57;;;;;;;3.66;100.00;101114.41;4817697;29;20049;-80
2022/12/25 07:24:42;;;;;;;10.67;4.70;;;;;;;3.70;100.00;101119.69;4831948;29;20049;-80
2022/12/25 07:27:08;;;;;;;10.80;5.03;;;;;;;3.76;100.00;101125.00;4831228;29;20043;-80
2022/12/25 07:29:35;;;;;;;18.03;5.83;;;;;;;3.65;100.00;101135.31;4814378;29;20050;-79
2022/12/25 07:32:02;;;;;;;11.93;4.17;;;;;;;3.60;100.00;101131.72;4825122;29;20050;-79
2022/12/25 07:34:28;;;;;;;11.47;5.43;;;;;;;3.66;100.00;101142.28;4826457;29;20149;-78
2022/12/25 07:36:55;;;;;;;13.47;6.77;;;;;;;3.73;100.00;101133.69;4827386;29;20042;-79
2022/12/25 07:39:22;;;;;;;10.23;5.10;;;;;;;3.71;100.00;101131.91;4830864;29;20042;-81
2022/12/25 07:41:50;;;;;;;12.33;5.03;;;;;;;3.65;100.00;101146.63;4831274;29;20042;-80
2022/12/25 07:44:17;;;;;;;11.63;4.60;;;;;;;3.70;100.00;101146.72;4832003;29;20080;-80
2022/12/25 07:46:44;;;;;;;7.53;4.60;;;;;;;3.63;100.00;101139.63;4825128;29;21676;-80
2022/12/25 07:49:11;;;;;;;11.30;5.60;;;;;;;3.70;100.00;101144.09;4813900;29;20079;-79
2022/12/25 07:51:37;;;;;;;10.77;5.27;;;;;;;3.73;100.00;101144.13;4829694;29;20413;-80
2022/12/25 07:54:04;;;;;;;10.40;5.53;;;;;;;3.74;100.00;101145.91;4814688;29;20046;-79
2022/12/25 07:56:31;;;;;;;11.23;5.03;;;;;;;3.65;100.00;101148.38;4828320;29;20524;-79
2022/12/25 07:58:58;;;;;;;12.20;4.53;;;;;;;3.58;100.00;101146.50;4814486;29;20134;-80
2022/12/25 08:01:25;;;;;;;8.63;4.97;;;;;;;3.56;100.00;101146.50;4825066;29;20066;-80
2022/12/25 08:03:57;;;;;;;9.63;5.33;;;;;;;3.54;100.00;101144.72;4824579;29;20049;-79
2022/12/25 08:06:30;;;;;;;10.73;5.27;;;;;;;3.61;100.00;101149.16;4821813;29;20444;-79
2022/12/25 08:09:02;;;;;;;14.47;6.20;;;;;;;3.71;100.00;101151.09;4807741;29;20042;-79
2022/12/25 08:11:29;;;;;;;21.23;6.80;;;;;;;3.78;100.00;101147.69;4820192;29;20047;-80
2022/12/25 08:13:55;;;;;;;10.37;5.07;;;;;;;3.67;100.00;101144.91;4825427;29;20037;-78
2022/12/25 08:16:22;;;;;;;12.03;5.80;;;;;;;3.77;100.00;101151.16;4813977;29;20179;-79
2022/12/25 08:18:49;;;;;;;10.43;5.00;;;;;;;3.64;100.00;101142.25;4821927;29;20070;-80
2022/12/25 08:21:16;;;;;;;12.00;5.87;;;;;;;3.68;100.00;101153.63;4807605;29;20045;-79
2022/12/25 08:23:44;;;;;;;14.03;5.90;;;;;;;3.76;100.00;101151.13;4808144;29;20045;-81
2022/12/25 08:26:16;;;;;;;11.30;5.43;;;;;;;3.74;100.00;101155.47;4803767;29;20308;-79
2022/12/25 08:28:43;;;;;;;11.50;5.40;;;;;;;3.83;100.00;101161.72;4825795;29;20050;-79
2022/12/25 08:31:22;;;;;;;11.47;6.30;;;;;;;3.88;100.00;101162.66;4805461;29;20046;-81
2022/12/25 08:33:51;;;;;;;10.80;6.27;;;;;;;3.77;100.00;101161.59;4800703;29;20042;-80
2022/12/25 08:36:18;;;;;;;32.13;8.80;;;;;;;3.74;100.00;101156.34;4827064;29;20042;-80
2022/12/25 08:38:45;;;;;;;13.13;6.93;;;;;;;3.77;100.00;101156.38;4826231;29;20412;-80
2022/12/25 08:41:12;;;;;;;14.70;6.87;;;;;;;3.90;100.00;101162.69;4812624;29;20072;-81
2022/12/25 08:43:39;;;;;;;12.13;6.47;;;;;;;3.95;100.00;101169.75;4831763;29;20042;-79
2022/12/25 08:46:06;;;;;;;16.73;8.80;;;;;;;3.94;100.00;101169.69;4823763;29;20069;-80
2022/12/25 08:48:34;;;;;;;13.23;7.20;;;;;;;3.87;100.00;101171.38;4805820;29;20050;-80
2022/12/25 08:51:01;;;;;;;15.03;8.07;;;;;;;3.92;100.00;101177.53;4827867;29;20046;-79
2022/12/25 08:53:28;;;;;;;11.60;6.03;;;;;;;3.96;100.00;101178.47;4813907;29;20110;-80
2022/12/25 08:55:59;;;;;;;12.10;5.97;;;;;;;3.93;100.00;101179.28;4810304;29;20070;-80
2022/12/25 08:58:26;;;;;;;11.77;6.10;;;;;;;3.95;100.00;101169.75;4826756;29;20046;-81
2022/12/25 09:00:53;;;;;;;10.93;5.63;;;;;;;3.96;100.00;101173.25;4810486;29;20057;-80
2022/12/25 09:03:20;;;;;;;14.00;5.83;;;;;;;4.02;100.00;101165.47;4824369;29;20043;-80
2022/12/25 09:05:47;;;;;;;12.13;6.67;;;;;;;3.94;100.00;101149.66;4830664;29;20046;-81
2022/12/25 09:08:14;;;;;;;13.70;6.93;;;;;;;3.97;100.00;101151.47;4811965;29;20051;-78
2022/12/25 09:10:41;;;;;;;19.83;6.90;;;;;;;4.01;100.00;101139.31;4831497;29;20042;-81
2022/12/25 09:13:08;;;;;;;11.27;6.10;;;;;;;4.02;100.00;101127.97;4814966;29;20389;-79
2022/12/25 09:15:37;;;;;;;14.30;7.03;;;;;;;4.13;100.00;101122.06;4829900;29;20047;-80
2022/12/25 09:18:04;;;;;;;10.87;6.37;;;;;;;4.09;100.00;101121.97;4817239;29;20046;-79
2022/12/25 09:20:31;;;;;;;15.57;6.57;;;;;;;4.15;100.00;101116.84;4830870;29;20043;-80
2022/12/25 09:22:57;;;;;;;14.60;7.90;;;;;;;4.15;100.00;101114.22;4826385;29;20063;-79
2022/12/25 09:25:24;;;;;;;15.43;7.70;;;;;;;4.15;100.00;101114.22;4814100;29;20042;-80
2022/12/25 09:27:51;;;;;;;13.53;8.37;;;;;;;4.19;100.00;101114.28;4816755;29;20544;-80
2022/12/25 09:30:18;;;;;;;14.03;6.90;;;;;;;4.23;100.00;101115.22;4831351;29;20050;-80
2022/12/25 09:32:44;;;;;;;13.17;5.43;;;;;;;4.15;100.00;101117.72;4829271;29;20046;-80
2022/12/25 09:35:12;;;;;;;14.30;8.07;;;;;;;4.20;100.00;101126.50;4814130;29;20054;-81
2022/12/25 09:37:39;;;;;;;18.47;9.50;;;;;;;4.41;100.00;101120.66;4804867;29;20054;-80
2022/12/25 09:40:06;;;;;;;13.47;8.07;;;;;;;4.35;100.00;101117.09;4838130;29;20042;-81
2022/12/25 09:42:33;;;;;;;17.07;8.73;;;;;;;4.37;100.00;101113.66;4831072;29;20043;-79
2022/12/25 09:45:04;;;;;;;28.60;16.77;;;;;;;4.15;100.00;101112.50;4835403;29;20083;-80
2022/12/25 09:47:34;;;;;;;19.13;12.63;;;;;;;4.24;100.00;101104.75;4832365;29;20073;-80
2022/12/25 09:50:22;;;;;;;15.77;9.30;;;;;;;4.37;100.00;101107.50;4831510;29;20054;-80
2022/12/25 09:53:19;;;;;;;15.67;9.40;;;;;;;4.31;100.00;101107.47;4824450;29;20047;-79
2022/12/25 09:56:04;;;;;;;23.63;9.80;;;;;;;4.50;100.00;101110.28;4831977;29;20058;-79
2022/12/25 09:58:32;;;;;;;16.97;7.93;;;;;;;4.48;100.00;101098.06;4821283;29;20513;-80
2022/12/25 10:01:12;;;;;;;17.77;8.53;;;;;;;4.57;100.00;101098.16;4818392;29;20050;-80
2022/12/25 10:04:01;;;;;;;16.93;7.93;;;;;;;4.44;100.00;101098.88;4831003;29;20038;-80
2022/12/25 10:06:36;;;;;;;14.50;7.87;;;;;;;4.45;100.00;101101.50;4834908;29;20071;-79
2022/12/25 10:09:21;;;;;;;18.47;8.47;;;;;;;4.36;100.00;101106.63;4832063;29;20073;-79
2022/12/25 10:12:09;;;;;;;18.37;8.70;;;;;;;4.50;100.00;101118.16;4834416;29;20046;-79
2022/12/25 10:14:44;;;;;;;15.47;8.83;;;;;;;4.57;100.00;101118.22;4815415;29;20779;-79
2022/12/25 10:17:43;;;;;;;18.57;9.80;;;;;;;4.68;100.00;101112.22;4826383;29;20055;-79
2022/12/25 10:20:18;;;;;;;15.60;7.87;;;;;;;4.79;100.00;101112.34;4823371;29;20059;-80
2022/12/25 10:22:57;;;;;;;14.77;7.37;;;;;;;4.71;100.00;101114.03;4824419;29;20048;-79
2022/12/25 10:25:24;;;;;;;18.20;9.20;;;;;;;4.80;100.00;101114.13;4832545;29;20489;-78
2022/12/25 10:27:54;;;;;;;16.87;7.50;;;;;;;4.87;100.00;101110.69;4815714;29;20412;-79
2022/12/25 10:30:23;;;;;;;18.60;7.73;;;;;;;4.89;100.00;101114.22;4826002;29;20493;-79
2022/12/25 10:32:51;;;;;;;16.43;7.30;;;;;;;4.94;100.00;101103.75;4834895;29;20033;-79
2022/12/25 10:35:20;;;;;;;30.87;19.77;;;;;;;5.00;100.00;101102.09;4831903;29;20106;-78
2022/12/25 10:37:57;;;;;;;16.53;8.30;;;;;;;5.04;100.00;101087.28;4831915;29;20073;-78
2022/12/25 10:40:23;;;;;;;17.93;11.17;;;;;;;5.00;100.00;101080.25;4829707;29;20053;-80
2022/12/25 10:42:59;;;;;;;15.53;8.33;;;;;;;4.98;100.00;101067.16;4826354;29;20047;-78
2022/12/25 10:45:26;;;;;;;16.03;8.90;;;;;;;4.79;100.00;101076.59;4827594;29;20489;-78
2022/12/25 10:48:01;;;;;;;13.53;8.73;;;;;;;4.81;100.00;101066.13;4812651;29;20050;-78
2022/12/25 10:50:33;;;;;;;14.17;8.33;;;;;;;4.86;100.00;101061.81;4832308;29;20042;-78
2022/12/25 10:53:08;;;;;;;18.53;8.80;;;;;;;4.81;100.00;101071.38;4829314;29;20052;-79
2022/12/25 10:55:34;;;;;;;14.43;8.13;;;;;;;4.94;100.00;101075.84;4815435;29;20106;-79
2022/12/25 10:58:01;;;;;;;47.90;37.40;;;;;;;4.99;100.00;101087.25;4830600;29;20085;-79
2022/12/25 11:00:30;;;;;;;19.70;10.73;;;;;;;4.97;100.00;101091.59;4839011;29;20050;-79
2022/12/25 11:02:57;;;;;;;15.23;9.93;;;;;;;4.91;100.00;101083.69;4839097;29;20106;-79
2022/12/25 11:05:29;;;;;;;14.43;7.90;;;;;;;4.89;100.00;101081.91;4837621;29;20092;-79
2022/12/25 11:07:58;;;;;;;14.60;7.50;;;;;;;4.77;100.00;101085.28;4831663;29;20046;-77
2022/12/25 11:10:31;;;;;;;14.23;7.70;;;;;;;4.93;100.00;101086.31;4814943;29;20046;-78
2022/12/25 11:12:59;;;;;;;13.90;7.33;;;;;;;5.03;100.00;101086.41;4817852;29;20038;-79
2022/12/25 11:15:44;;;;;;;15.10;8.10;;;;;;;5.01;100.00;101087.25;4812408;29;20075;-79
2022/12/25 11:18:21;;;;;;;12.90;6.47;;;;;;;4.93;100.00;101066.22;4811440;29;20054;-81
2022/12/25 11:20:56;;;;;;;14.87;7.13;;;;;;;4.90;100.00;101066.22;4807816;29;20466;-80
2022/12/25 11:23:25;;;;;;;17.13;7.97;;;;;;;5.01;100.00;101061.94;4789304;29;20053;-80
2022/12/25 11:25:59;;;;;;;12.63;7.13;;;;;;;5.08;100.00;101068.13;4804286;29;20059;-81
2022/12/25 11:28:28;;;;;;;11.98;6.60;;;;;;;5.03;100.00;101075.91;4808159;29;21904;-80
2022/12/25 11:31:01;;;;;;;12.80;6.97;;;;;;;5.05;100.00;101068.97;4823143;29;20046;-80
2022/12/25 11:33:34;;;;;;;13.27;7.53;;;;;;;5.18;100.00;101066.44;4821825;29;20121;-79
2022/12/25 11:36:05;;;;;;;11.10;7.47;;;;;;;5.08;100.00;101057.66;4820478;29;20068;-82
2022/12/25 11:38:31;;;;;;;11.80;6.80;;;;;;;5.16;100.00;101050.72;4813514;29;20108;-80
2022/12/25 11:41:00;;;;;;;13.77;6.67;;;;;;;4.92;100.00;101046.16;4808488;29;20050;-80
2022/12/25 11:43:31;;;;;;;12.20;6.80;;;;;;;4.99;100.00;101040.13;4824560;29;20034;-81
2022/12/25 11:46:00;;;;;;;14.33;7.33;;;;;;;4.91;100.00;101028.69;4791619;29;20050;-81
2022/12/25 11:48:30;;;;;;;14.63;8.00;;;;;;;4.84;100.00;101021.66;4822748;29;20609;-81
2022/12/25 11:50:59;;;;;;;11.83;7.13;;;;;;;4.91;100.00;101013.00;4823887;29;20042;-80
2022/12/25 11:53:34;;;;;;;15.77;8.07;;;;;;;5.01;100.00;101008.69;4814563;29;20077;-80
2022/12/25 11:56:07;;;;;;;13.60;7.50;;;;;;;4.97;100.00;101012.16;4810519;29;20117;-82
2022/12/25 11:58:41;;;;;;;12.33;7.10;;;;;;;5.03;100.00;101010.47;4820979;29;20046;-81
2022/12/25 12:01:14;;;;;;;12.20;6.93;;;;;;;4.97;100.00;100997.34;4806387;29;20110;-82
2022/12/25 12:03:41;;;;;;;14.37;7.87;;;;;;;4.95;100.00;100987.69;4824251;29;20046;-81
2022/12/25 12:06:23;;;;;;;12.17;6.97;;;;;;;4.95;100.00;100988.56;4828659;29;20326;-80
2022/12/25 12:08:52;;;;;;;10.40;5.87;;;;;;;5.02;100.00;100982.53;4823093;29;20090;-80
2022/12/25 12:11:32;;;;;;;11.70;6.07;;;;;;;5.00;100.00;100968.53;4810560;29;20063;-80
2022/12/25 12:14:38;;;;;;;14.63;6.40;;;;;;;5.05;100.00;100958.13;4805881;29;20103;-79
2022/12/25 12:17:10;;;;;;;12.83;5.67;;;;;;;4.98;100.00;100958.94;4819332;29;20053;-78
2022/12/25 12:19:37;;;;;;;13.67;6.93;;;;;;;5.02;100.00;100964.19;4819397;29;20046;-79
2022/12/25 12:22:04;;;;;;;13.00;6.37;;;;;;;5.05;100.00;100964.22;4896890;23;20138;-79
2022/12/25 12:24:40;;;;;;;10.60;6.10;;;;;;;4.99;100.00;100981.63;4842620;29;20057;-80
2022/12/25 12:27:21;;;;;;;11.53;7.47;;;;;;;4.91;100.00;100984.19;4842157;29;20046;-79
2022/12/25 12:29:50;;;;;;;15.93;8.67;;;;;;;4.89;100.00;100988.53;4843970;29;20038;-79
2022/12/25 12:32:26;;;;;;;14.13;7.73;;;;;;;4.96;100.00;100990.34;4825494;29;20049;-79
2022/12/25 12:34:54;;;;;;;12.47;6.40;;;;;;;4.89;100.00;100985.94;4813950;29;20046;-80
2022/12/25 12:37:30;;;;;;;18.10;7.83;;;;;;;5.03;100.00;100980.78;4823534;29;20069;-78
2022/12/25 12:39:57;;;;;;;12.97;6.63;;;;;;;5.03;100.00;100986.88;4823889;29;20051;-79
2022/12/25 12:42:45;;;;;;;16.77;7.83;;;;;;;4.98;100.00;100982.50;4826833;29;20046;-80
2022/12/25 12:45:25;;;;;;;14.53;6.83;;;;;;;5.00;100.00;100986.88;4810554;29;20049;-79
2022/12/25 12:47:53;;;;;;;12.27;6.57;;;;;;;5.05;100.00;100974.72;4846139;29;20564;-79
2022/12/25 12:50:35;;;;;;;13.60;6.43;;;;;;;5.08;100.00;100966.84;4823437;29;20064;-79
2022/12/25 12:53:16;;;;;;;12.17;7.00;;;;;;;4.87;100.00;100950.09;4825310;29;20068;-80
2022/12/25 12:55:43;;;;;;;17.93;7.33;;;;;;;4.87;100.00;100943.13;4812063;29;20389;-79
2022/12/25 12:58:23;;;;;;;12.87;7.00;;;;;;;4.87;100.00;100940.50;4825016;29;20143;-80
2022/12/25 13:01:04;;;;;;;9.67;5.50;;;;;;;4.94;100.00;100950.16;4804607;29;20784;-79
2022/12/25 13:04:09;;;;;;;10.30;5.97;;;;;;;4.90;100.00;100950.16;4820606;29;20393;-79
2022/12/25 13:06:51;;;;;;;12.70;6.45;;;;;;;4.91;100.00;100944.91;4825510;29;20512;-79
2022/12/25 13:09:50;;;;;;;15.50;6.60;;;;;;;5.02;100.00;100958.94;4809825;29;20050;-79
2022/12/25 13:12:17;;;;;;;11.77;6.40;;;;;;;4.98;100.00;100959.81;4823418;29;20576;-80
2022/12/25 13:14:45;;;;;;;12.57;6.60;;;;;;;4.96;100.00;100960.66;4823499;29;20042;-80
2022/12/25 13:17:17;;;;;;;13.47;7.20;;;;;;;4.88;100.00;100957.13;4823646;29;20345;-80